Lanark Village, Florida
Current Conditions -  °F | °C
As of 6:53 AM on Sunday 25 Jan 2015 (Local Time) from KAAF Reporting Station
Clear Clear  
Wind Chill: 40°   Ceiling: Unl
Heat Index: 40°   Visibility: 10mi
Dew Point: 35°   Wind: 3mph
Humidity: 83%   Direction: 20°NNE
Pressure: 30.08"   Gusts: NA
Location:  29.88°N, 84.6°W
Report Text: KAAF 251153Z AUTO 02003KT 10SM CLR 04/02 A3008 RMK AO2 SLP184 T00440017 10078 20044 53002 TSNO $
Loading
Personal Weather Stations






























Interactive Weather Map New forecast layout! Learn more

10-Day Weather Forecast

Advertisements
Track Severe Weather on mobile